• Join FlightAware (Why Join?)
  • Login
  • US Flag 
05:26PM EDT


 

Airport Tracker/Info


-or-


 

Live Flight TrackerFlight Track Log ✈ N960DL ✈ 10-Jun-2013 ✈ KDTW - KCLT

Flight Track Log - Related Links

Times and Time Zones

All times are in EDT time to prevent confusion due to time zone crossing. See the N960DL flight status page for this flight to view local times or setup timezone preferences in your user account.

Time Position Orientation Groundspeed Altitude Reporting Facility
EDT Latitude Longitude Course Direction KTS MPH feet Rate Location/Type
07:39AM 42.2314 -83.3342 194° South 152 175 1,400  Level Cleveland Center
07:40AM 42.2744 -83.2772 44° Northeast 245 282 2,600 1,800 Climbing Cleveland Center
07:41AM 42.3242 -83.1978 50° Northeast 279 321 5,300 2,760 Climbing Cleveland Center
07:42AM 41.8768 -83.2261 194° South  Level Estimated
07:42AM 42.3072 -83.1158 106° East 263 303 8,000  Level Cleveland Center
07:43AM 41.7649 -83.1840 200° South  Level Estimated
07:43AM 42.2369 -83.0933 167° South 271 312 10,500  Level Cleveland Center
07:44AM 41.6530 -83.1420 194° South  Level Estimated
07:44AM 42.2161 -83.0839 161° South 279 321 10,600  Level Cleveland Center
07:45AM 42.1364 -83.1144 196° South 335 386 11,900 1,800 Climbing Cleveland Center
07:46AM 42.0511 -83.1978 216° Southwest 349 402 14,300 2,280 Climbing Cleveland Center
07:47AM 41.9656 -83.2836 217° Southwest 377 434 16,500 2,160 Climbing Cleveland Center
07:48AM 41.8781 -83.3747 218° Southwest 396 456 18,700 1,920 Climbing Cleveland Center
07:49AM 41.7861 -83.4628 216° Southwest 402 463 20,400 1,740 Climbing Cleveland Center
07:50AM 41.6983 -83.5561 218° Southwest 406 467 22,200 1,800 Climbing Cleveland Center
07:51AM 41.5867 -83.5981 196° South 406 467 24,000 1,380 Climbing Cleveland Center
07:52AM 41.4692 -83.6314 192° South 414 476 25,000 480 Climbing Cleveland Center
07:53AM 41.3650 -83.6986 206° Southwest 419 482 25,000 300 Level Cleveland Center
07:54AM 41.2481 -83.7814 208° Southwest 432 497 25,700 1,200 Climbing Cleveland Center
07:56AM 41.0633 -83.9153 209° Southwest 416 479 28,600 1,440 Climbing Indianapolis Center
07:57AM 40.9597 -83.9903 209° Southwest 410 472 30,000 1,380 Climbing Indianapolis Center
07:58AM 40.8433 -84.0658 206° Southwest 394 453 31,500 900 Climbing Indianapolis Center
07:59AM 40.7347 -84.0814 186° South 387 445 31,900 240 Climbing Indianapolis Center
08:00AM 40.6267 -84.0925 184° South 388 447 32,000 240 Climbing Indianapolis Center
08:01AM 40.5167 -84.1047 185° South 393 452 32,400 420 Climbing Indianapolis Center
08:02AM 40.4086 -84.1161 185° South 387 445 32,900 420 Climbing Indianapolis Center
08:03AM 40.3028 -84.1286 185° South 381 438 33,300 480 Climbing Indianapolis Center
08:04AM 40.1953 -84.1411 185° South 385 443 33,900 660 Climbing Indianapolis Center
08:05AM 40.0903 -84.1525 185° South 378 435 34,700 480 Climbing Indianapolis Center
08:06AM 39.9864 -84.1661 186° South 374 430 35,000 120 Climbing Indianapolis Center
08:07AM 39.8803 -84.1800 186° South 379 436 35,000  Level Indianapolis Center
08:08AM 39.7553 -84.1939 185° South 385 443 35,000  Level Indianapolis Center
08:09AM 39.6461 -84.2064 185° South 390 449 35,000 -60 Level Indianapolis Center
08:10AM 39.5372 -84.2150 183° South 390 449 34,900  Descending Indianapolis Center
08:11AM 39.4339 -84.1625 159° South 400 460 35,000  Climbing Indianapolis Center
08:12AM 39.3322 -84.0914 152° Southeast 412 474 35,000 -60 Level Indianapolis Center
08:13AM 39.2325 -84.0197 151° Southeast 408 470 34,900  Descending Indianapolis Center
08:14AM 39.1314 -83.9481 151° Southeast 412 474 35,000  Climbing Indianapolis Center
08:15AM 39.0306 -83.8792 152° Southeast 408 470 35,000  Level Indianapolis Center
08:16AM 38.9125 -83.7983 152° Southeast 409 471 35,000  Level Indianapolis Center
08:17AM 38.8106 -83.7253 151° Southeast 414 476 35,000 -60 Level Indianapolis Center
08:18AM 38.7083 -83.6531 151° Southeast 416 479 34,900  Descending Indianapolis Center
08:19AM 38.6025 -83.5767 151° Southeast 417 480 35,000 -360 Climbing Indianapolis Center
08:20AM 38.5022 -83.5058 151° Southeast 411 473 34,200 -1,020 Descending Indianapolis Center
08:21AM 38.4003 -83.4389 153° Southeast 411 473 33,000 -600 Descending Indianapolis Center
08:22AM 38.2972 -83.3658 151° Southeast 420 483 33,000  Level Indianapolis Center
08:23AM 38.1942 -83.2956 152° Southeast 420 483 33,000  Level Indianapolis Center
08:24AM 38.0914 -83.2231 151° Southeast 421 484 33,000  Level Indianapolis Center
08:25AM 37.9692 -83.1406 152° Southeast 425 489 33,000  Level Indianapolis Center
08:26AM 37.8650 -83.0689 151° Southeast 426 490 33,000  Level Indianapolis Center
08:27AM 37.7725 -82.9667 139° Southeast 437 503 33,000 -60 Level Indianapolis Center
08:28AM 37.6767 -82.8681 141° Southeast 441 507 32,900 -780 Descending Indianapolis Center
08:29AM 37.5717 -82.7939 151° Southeast 433 498 31,400 -1,440 Descending Indianapolis Center
08:30AM 37.4647 -82.7325 156° South 422 486 30,000 -1,200 Descending Indianapolis Center
08:32AM 37.3556 -82.6681 155° Southeast 427 491 29,000 -540 Descending Indianapolis Center
08:33AM 37.2261 -82.5906 155° Southeast 437 503 29,000  Level Indianapolis Center
08:34AM 37.1153 -82.5239 154° Southeast 437 503 29,000  Level Indianapolis Center
08:35AM 37.0044 -82.4547 154° Southeast 439 505 29,000  Level Indianapolis Center
08:36AM 36.8956 -82.3836 152° Southeast 438 504 29,000 -780 Level Indianapolis Center
08:37AM 36.7861 -82.3150 153° Southeast 436 502 27,500 -1,320 Descending Indianapolis Center
08:38AM 36.6758 -82.2442 153° Southeast 440 506 26,400 -1,080 Descending Indianapolis Center
08:39AM 36.5683 -82.1758 153° Southeast 436 502 25,400 -1,080 Descending Indianapolis Center
08:40AM 36.4369 -82.0956 154° Southeast 430 495 24,200 -720 Descending Atlanta Center
08:41AM 36.3358 -82.0308 153° Southeast 424 488 23,900 -780 Descending Atlanta Center
08:42AM 36.2347 -81.9717 155° Southeast 418 481 22,700 -1,560 Descending Atlanta Center
08:43AM 36.1358 -81.9100 153° Southeast 407 468 20,800 -2,400 Descending Atlanta Center
08:44AM 36.0367 -81.8508 154° Southeast 395 455 18,000 -2,400 Descending Atlanta Center
08:45AM 35.9519 -81.7739 144° Southeast 388 447 16,000 -2,280 Descending Atlanta Center
08:46AM 35.8731 -81.6914 140° Southeast 378 435 13,500 -2,400 Descending Atlanta Center
08:46AM 35.8328 -81.6514 141° Southeast 365 420 12,400 -2,220 Descending Atlanta Center
08:47AM 35.7964 -81.6117 138° Southeast 372 428 11,300 -1,560 Descending Atlanta Center
08:47AM 35.7625 -81.5769 140° Southeast 358 412 11,000 -300 Descending Atlanta Center
08:48AM 35.7219 -81.5319 138° Southeast 362 417 11,000  Level Atlanta Center
08:48AM 35.6983 -81.5072 140° Southeast 336 387 11,000  Level Atlanta Center
08:49AM 35.6578 -81.4625 138° Southeast 326 375 11,000  Level Atlanta Center
08:49AM 35.6408 -81.4450 140° Southeast 285 328 11,000  Level Atlanta Center
08:50AM 35.6022 -81.4028 138° Southeast 305 351 11,000 -240 Level Atlanta Center
08:50AM 35.5828 -81.3728 129° Southeast 291 335 10,800 -1,440 Descending Atlanta Center
08:51AM 35.5564 -81.3047 115° Southeast 298 343 9,600 -1,500 Descending Atlanta Center
08:51AM 35.5494 -81.2794 109° East 307 353 9,300 -1,500 Descending Atlanta Center
08:52AM 35.5228 -81.2089 115° Southeast 304 350 8,100 -1,680 Descending Atlanta Center
08:52AM 35.5181 -81.1836 103° East 301 346 7,600 -1,740 Descending Atlanta Center
08:53AM 35.4914 -81.1156 116° Southeast 304 350 6,400 -1,680 Descending Atlanta Center
08:53AM 35.4847 -81.0903 108° East 295 339 5,900 -1,620 Descending Atlanta Center
08:54AM 35.4622 -81.0222 112° Southeast 298 343 4,800 -1,620 Descending Atlanta Center
08:54AM 35.4450 -81.0000 134° Southeast 284 327 4,300 -1,320 Descending Atlanta Center
08:55AM 35.4044 -80.9708 150° Southeast 253 291 3,500 -900 Descending Atlanta Center
08:55AM 35.3836 -80.9692 176° South 222 255 3,400 -300 Descending Atlanta Center